»·PEaware :: N2494V L88-L70

N2494V :: L88-L70

FLIGHT INFORMATION

Flight Status: Arrived
Operator: Privately registered:
United States
More flights under this callsign
Pilot: Sally S. (18014)
Aircraft: Unknown
(DA62)
More flights by this aircraft type
Origin: L88 New Cuyama
United States
Destination: L70 Agua Dulce
United States
More flights between these airports :: More routes between these airports
Route: TAFTO JEFFY SAUGS
File this flight plan on PilotEdge
Remarks:
Altitude:
(Current/Filed)
9,500ft
Speed:
(Current/Filed)
150kts
Departed: 02-Apr-18 12:54 PM
Arrived: 02-Apr-18 01:34 PM
Distance/Time
Traveled:
73nm/0:40
Distance/Time
To Go:
Arrived

Flight Plot

Page will automatically refresh every two minutes.

Flight plan parsing failed; only flown route is shown


Map Options




Map Legend


Flown Route
Filed Route
Departure Airport
Arrival Airport
Navaid (VOR, NDB)
Fix

Horizontal Profiles

Position Reports

Time Latitude Longitude Heading Altitude Ground
Speed
02-Apr-18 12:48 34.942908 -119.690914 204 2207ft 0kts
02-Apr-18 12:49 34.942908 -119.690914 204 2207ft 0kts
02-Apr-18 12:50 34.942786 -119.691168 175 2207ft 0kts
02-Apr-18 12:51 34.942454 -119.691358 196 2207ft 4kts
02-Apr-18 12:52 34.942305 -119.691306 116 2207ft 0kts
02-Apr-18 12:53 34.935359 -119.673381 109 2451ft 91kts
02-Apr-18 12:54 34.932017 -119.642199 48 2989ft 95kts
02-Apr-18 12:55 34.943246 -119.616966 105 3677ft 109kts
02-Apr-18 12:56 34.938101 -119.582894 77 4989ft 104kts
02-Apr-18 12:57 34.956285 -119.556724 36 6071ft 118kts
02-Apr-18 12:58 34.981305 -119.527945 35 6764ft 125kts
02-Apr-18 12:59 35.006532 -119.498936 35 7629ft 123kts
02-Apr-18 13:00 35.031300 -119.470548 34 8513ft 122kts
02-Apr-18 13:01 35.040449 -119.429300 79 9352ft 138kts
02-Apr-18 13:02 35.042272 -119.375720 79 9444ft 173kts
02-Apr-18 13:03 35.027109 -119.320086 124 9438ft 194kts
02-Apr-18 13:04 34.997813 -119.265147 93 9423ft 189kts
02-Apr-18 13:05 34.991924 -119.201967 95 9431ft 189kts
02-Apr-18 13:06 34.972119 -119.141614 123 9435ft 195kts
02-Apr-18 13:07 34.938635 -119.089523 123 9438ft 195kts
02-Apr-18 13:08 34.906891 -119.036698 121 9437ft 189kts
02-Apr-18 13:09 34.877053 -118.986055 121 9543ft 182kts
02-Apr-18 13:10 34.848206 -118.935798 119 9557ft 182kts
02-Apr-18 13:11 34.822259 -118.882983 115 9567ft 181kts
02-Apr-18 13:12 34.797997 -118.829048 115 9576ft 182kts
02-Apr-18 13:13 34.773403 -118.774717 116 9418ft 191kts
02-Apr-18 13:14 34.746775 -118.716064 116 8830ft 203kts
02-Apr-18 13:15 34.719475 -118.656086 117 8229ft 203kts
02-Apr-18 13:16 34.692129 -118.596151 118 7632ft 202kts
02-Apr-18 13:17 34.651607 -118.555690 118 7527ft 182kts
02-Apr-18 13:18 34.626700 -118.503960 134 7523ft 177kts
02-Apr-18 13:19 34.594848 -118.458950 126 7532ft 175kts
02-Apr-18 13:20 34.572116 -118.406801 112 7522ft 175kts
02-Apr-18 13:21 34.550514 -118.348947 112 6780ft 203kts
02-Apr-18 13:22 34.505716 -118.319024 167 6178ft 188kts
02-Apr-18 13:23 34.481031 -118.297996 333 5027ft 142kts
02-Apr-18 13:24 34.509619 -118.313000 21 4052ft 112kts
02-Apr-18 13:25 34.514527 -118.295277 242 3423ft 95kts
02-Apr-18 13:26 34.500388 -118.317208 227 2740ft 83kts
02-Apr-18 13:27 34.505280 -118.324756 45 3547ft 130kts
02-Apr-18 13:28 34.519793 -118.290218 182 3898ft 118kts
02-Apr-18 13:29 34.503430 -118.312968 223 2672ft 68kts
02-Apr-18 13:30 34.499311 -118.335495 21 3566ft 106kts
02-Apr-18 13:31 34.523762 -118.302552 38 3787ft 124kts
02-Apr-18 13:32 34.515396 -118.293937 241 3268ft 105kts
02-Apr-18 13:33 34.502729 -118.314413 230 2664ft 21kts
02-Apr-18 13:34 34.503156 -118.314858 39 2664ft 0kts
02-Apr-18 13:35 34.503156 -118.314858 39 2664ft 0kts
02-Apr-18 13:36 34.503156 -118.314858 39 2664ft 0kts
02-Apr-18 13:37 34.503156 -118.314858 39 2664ft 0kts
02-Apr-18 13:38 34.503156 -118.314858 39 2664ft 0kts

Navigation Log

Ident Type
Flight plan parsing failed, navigation log unavailable